Wall Blake, Anguilla

12:32 AM AST on January 25, 2015 (GMT -0400)
Concordia | Change Station
CLOSE
Current Station
Personal Weather Station
Location: Saint-Martin,
Elevation: 85 ft
Nearby Weather Stations

Elev 85 ft 18.07 °N, 63.07 °W | Updated 4 seconds ago

Rain
Rain
75.0 °F
Feels Like 75 °F
N
0.0
Wind Variable Wind from NNE
Gusts 0.9 mph

Today
High -- | Low -- °F
--% Chance of Precip.
Yesterday
High -- | Low -- °F
Precip. -- in
6:46 AM 6:02 PM
Waxing Crescent, 28% visible
Pressure 30.04 in
Visibility 6.2 miles
Clouds Few 1900 ft
Mostly Cloudy 3900 ft
Heat Index 75 °F
Dew Point 70 °F
Humidity 86%
Rainfall 0.00 in
Snow Depth Not available.
UV 0.0 out of 12
Pollen Not available.
Air Quality Not available.
Flu Activity Not available.
METAR TNCM 250400Z 07007KT 9999 VCSH FEW019 BKN039 25/21 Q1017 A3004 RMK MIN VIS 11KM NE, SHRA NE

More Conditions Fewer Conditions

Pressure 30.04 in
Visibility 6.2 miles
Clouds Few 1900 ft
Mostly Cloudy 3900 ft
Heat Index 75 °F
Dew Point 70 °F
Humidity 86%
Rainfall 0.00 in
Snow Depth Not available.
UV 0.0 out of 12
Pollen Not available.
Air Quality Not available.
Flu Activity Not available.
METAR TNCM 250400Z 07007KT 9999 VCSH FEW019 BKN039 25/21 Q1017 A3004 RMK MIN VIS 11KM NE, SHRA NE

More Conditions Fewer Conditions

10-Day Weather Forecast

Almanac

Astronomy

Jan. 25, 2015 Rise Set
Actual Time
Civil Twilight
Nautical Twilight
Astronomical Twilight
Moon
Length of Visible Light
Length of Day
Tomorrow will be .
, % of the Moon is Illuminated

Today's Extremes

Country Highs Country Lows

Community

WunderPhotos

Upload Photos

1,789,838 photos uploaded!

WunderBlogs® & News

Nearby

Air Quality

  Air Quality AQ Index Pollutant
Not available.

Snow Depth

Station Depth Elevation

Earthquake Activity

City Distance Mag. Time & Date
Minimum magnitude displayed is 2.5.

Coastal Water Temperatures

Place Temperature

Nearby Weather Stations